Oski — WYD3004 — position and weather

sailwx.info

Track history (hours):
 
Tides and Currents Weather Stations Pressure Air Temp Water Temp Dewpoint Dewpoint Depression Visibility Wind Speed Wind Dir Waves Ship Positions

Oski

Owner: BLUE & GOLD FLEET, SAN FRANCISCO, CA. More information available from US FCC via Universal Licensing System and Coast Guard Vessel Documentation Center.

Last reported at 2017-Aug-21 21:15 UTC. Time now 2017-Aug-21 21:46 UTC.
Position N 37°49' W 122°25'.

Length 24 m; draft 2 m.

Type: Passenger vessel. MMSI: 366985320.

Date/timePositionNaut miles runAvg speedWind from/ knotsBaromVisibWave heightAir tempDewpointWater temp
2017-Aug-21 21:15N 37°49' W 122°25'0 0.0
2017-Aug-21 02:11N 37°49' W 122°25'0 0.2
2017-Aug-21 02:00N 37°49' W 122°25'2 4.9
2017-Aug-21 01:30N 37°49' W 122°28'2 4.9
2017-Aug-21 01:00N 37°49' W 122°25'1 1.4
2017-Aug-21 00:30N 37°49' W 122°25'2 3.6
2017-Aug-21 00:00N 37°49' W 122°27'2 3.9
2017-Aug-20 23:30N 37°49' W 122°25'0 0.0
2017-Aug-20 23:00N 37°49' W 122°25'2 4.5
2017-Aug-20 22:30N 37°50' W 122°27'2 4.6
2017-Aug-20 22:00N 37°49' W 122°25'0 0.0
2017-Aug-20 21:30N 37°49' W 122°25'0 0.0
2017-Aug-20 21:00N 37°49' W 122°25'2 4.6
2017-Aug-20 20:30N 37°50' W 122°27'2 4.6
2017-Aug-20 20:00N 37°49' W 122°25'0 0.8
2017-Aug-20 19:30N 37°49' W 122°24'1 2.6
2017-Aug-20 19:00N 37°50' W 122°25'1 2.7
2017-Aug-20 18:30N 37°49' W 122°26'1 2.9
2017-Aug-20 18:00N 37°49' W 122°25'0 0.0
2017-Aug-20 04:05N 37°49' W 122°25'0 0.0
2017-Aug-20 04:00N 37°49' W 122°25'1 2.9
2017-Aug-20 03:30N 37°48' W 122°23'4 8.6
2017-Aug-20 03:00N 37°49' W 122°28'3 5.7
2017-Aug-20 02:30N 37°49' W 122°25'0 0.0
2017-Aug-20 02:00N 37°49' W 122°25'3 6.2
2017-Aug-20 01:30N 37°49' W 122°28'3 6.0
2017-Aug-20 01:00N 37°49' W 122°25'1 1.2
2017-Aug-20 00:30N 37°49' W 122°25'2 3.5
2017-Aug-19 23:59N 37°49' W 122°27'2 3.6
2017-Aug-19 23:30N 37°49' W 122°25'0 0.0
2017-Aug-19 23:01N 37°49' W 122°25'2 3.5
2017-Aug-19 22:30N 37°50' W 122°26'1 2.7
2017-Aug-19 22:01N 37°49' W 122°25'0 0.8
2017-Aug-19 21:30N 37°49' W 122°25'0 0.0
2017-Aug-19 21:00N 37°49' W 122°25'2 4.0
2017-Aug-19 20:31N 37°49' W 122°27'2 4.0
2017-Aug-19 20:01N 37°49' W 122°25'1 1.4
2017-Aug-19 19:31N 37°48' W 122°24'2 3.9
2017-Aug-19 19:00N 37°50' W 122°25'2 3.4
2017-Aug-19 18:31N 37°49' W 122°27'2 3.8
2017-Aug-19 18:01N 37°49' W 122°25'0 0.0
2017-Aug-19 02:28N 37°49' W 122°25'3 6.4
2017-Aug-19 02:00N 37°49' W 122°28'3 5.8
2017-Aug-19 01:30N 37°49' W 122°25'0 0.0
2017-Aug-19 01:00N 37°49' W 122°25'0 0.0
2017-Aug-19 00:30N 37°49' W 122°25'0 0.4
2017-Aug-19 00:00N 37°49' W 122°25'1 2.3
2017-Aug-18 23:30N 37°50' W 122°25'2 3.1
2017-Aug-18 23:01N 37°49' W 122°27'2 3.9
2017-Aug-18 22:30N 37°49' W 122°25'2 4.8
2017-Aug-18 22:00N 37°49' W 122°28'2 4.8
2017-Aug-18 21:31N 37°49' W 122°25'0 0.0
2017-Aug-18 21:00N 37°49' W 122°25'0 0.0
2017-Aug-18 20:30N 37°49' W 122°25'2 4.4
2017-Aug-18 20:01N 37°49' W 122°27'2 4.4
2017-Aug-18 19:31N 37°49' W 122°25'0 0.0
2017-Aug-18 19:00N 37°49' W 122°25'0 0.0
2017-Aug-18 18:28N 37°49' W 122°25'1 0.1
2017-Aug-18 02:24N 37°48' W 122°24'1 2.1
2017-Aug-18 02:00N 37°49' W 122°25'3 5.3
2017-Aug-18 01:31N 37°49' W 122°28'3 5.3
2017-Aug-18 01:01N 37°49' W 122°25'1 1.2
2017-Aug-18 00:30N 37°49' W 122°24'2 3.7
2017-Aug-18 00:00N 37°49' W 122°27'2 3.3
2017-Aug-17 23:30N 37°49' W 122°25'0 0.0
2017-Aug-17 23:00N 37°49' W 122°25'2 4.5
2017-Aug-17 22:30N 37°49' W 122°27'2 4.5
2017-Aug-17 22:00N 37°49' W 122°25'0 0.0
2017-Aug-17 21:30N 37°49' W 122°25'0 0.0
2017-Aug-17 21:00N 37°49' W 122°25'2 4.3
2017-Aug-17 20:31N 37°49' W 122°27'2 4.3
2017-Aug-17 20:01N 37°49' W 122°25'1 1.6
2017-Aug-17 19:31N 37°49' W 122°24'2 3.7
2017-Aug-17 19:01N 37°50' W 122°25'2 3.3
2017-Aug-17 18:30N 37°49' W 122°27'2 3.5
2017-Aug-17 17:59N 37°49' W 122°25'0 0.0
2017-Aug-17 02:54N 37°49' W 122°25'2 5.2
2017-Aug-17 02:30N 37°50' W 122°27'2 3.8
2017-Aug-17 01:58N 37°49' W 122°25'0 0.0
2017-Aug-17 01:30N 37°49' W 122°25'3 5.1
2017-Aug-17 01:01N 37°50' W 122°28'3 4.9
2017-Aug-17 00:30N 37°49' W 122°25'1 2.2
2017-Aug-17 00:00N 37°50' W 122°25'1 2.6
2017-Aug-16 23:30N 37°49' W 122°26'1 2.5
2017-Aug-16 22:59N 37°49' W 122°25'0 0.0
2017-Aug-16 22:28N 37°49' W 122°25'1 2.0
2017-Aug-16 22:00N 37°48' W 122°24'2 3.5
2017-Aug-16 21:30N 37°49' W 122°25'1 2.9
2017-Aug-16 21:00N 37°49' W 122°27'2 3.0
2017-Aug-16 20:26N 37°49' W 122°25'0 0.0
2017-Aug-16 19:58N 37°49' W 122°25'3 5.6
2017-Aug-16 19:31N 37°49' W 122°28'3 4.6
2017-Aug-16 18:58N 37°49' W 122°25'1 2.5
2017-Aug-16 18:30N 37°50' W 122°25'1 0.1
2017-Aug-16 02:30N 37°49' W 122°25'3 5.1
2017-Aug-16 02:01N 37°49' W 122°28'3 5.1
2017-Aug-16 01:30N 37°49' W 122°25'0 0.0
2017-Aug-16 01:01N 37°49' W 122°25'0 0.0
2017-Aug-16 00:30N 37°49' W 122°25'1 1.3
2017-Aug-16 00:01N 37°49' W 122°24'2 3.1
2017-Aug-15 23:31N 37°50' W 122°25'1 1.9
2017-Aug-15 23:01N 37°49' W 122°26'1 3.0
2017-Aug-15 22:31N 37°49' W 122°25'3 5.7
2017-Aug-15 22:00N 37°50' W 122°28'3 5.7
2017-Aug-15 21:30N 37°49' W 122°25'0 0.0
2017-Aug-15 21:00N 37°49' W 122°25'0 0.0
2017-Aug-15 20:30N 37°49' W 122°25'3 5.3
2017-Aug-15 20:00N 37°49' W 122°28'3 5.3
2017-Aug-15 19:30N 37°49' W 122°25'0 0.0
2017-Aug-15 02:32N 37°49' W 122°25'0 0.0
2017-Aug-15 02:29N 37°49' W 122°25'2 4.7
2017-Aug-15 02:00N 37°50' W 122°27'2 4.4
2017-Aug-15 01:31N 37°49' W 122°25'0 0.0
2017-Aug-15 01:01N 37°49' W 122°25'0 0.0
2017-Aug-15 00:31N 37°49' W 122°25'1 1.2
2017-Aug-15 00:01N 37°49' W 122°24'2 3.0
2017-Aug-14 23:30N 37°50' W 122°25'1 1.9
2017-Aug-14 23:01N 37°49' W 122°26'2 3.1
2017-Aug-14 22:31N 37°49' W 122°25'3 6.0
2017-Aug-14 22:00N 37°49' W 122°28'3 6.0
2017-Aug-14 21:30N 37°49' W 122°25'0 0.0
2017-Aug-14 21:00N 37°49' W 122°25'0 0.0
2017-Aug-14 20:30N 37°49' W 122°25'2 4.9
2017-Aug-14 20:00N 37°49' W 122°28'2 4.9
2017-Aug-14 19:30N 37°49' W 122°25'0 0.0
2017-Aug-14 02:31N 37°49' W 122°25'0 0.0
2017-Aug-14 02:28N 37°49' W 122°25'2 5.0
2017-Aug-14 02:00N 37°50' W 122°27'2 4.7
2017-Aug-14 01:30N 37°49' W 122°25'0 0.0
2017-Aug-14 01:00N 37°49' W 122°25'0 0.0
2017-Aug-14 00:30N 37°49' W 122°25'0 0.8
2017-Aug-14 00:00N 37°49' W 122°24'1 2.3
2017-Aug-13 23:30N 37°50' W 122°25'1 2.9
2017-Aug-13 23:00N 37°49' W 122°27'2 3.6
2017-Aug-13 22:30N 37°49' W 122°25'3 5.3
2017-Aug-13 22:00N 37°49' W 122°28'3 5.3
2017-Aug-13 21:30N 37°49' W 122°25'0 0.0
2017-Aug-13 21:00N 37°49' W 122°25'0 0.0
2017-Aug-13 20:30N 37°49' W 122°25'3 5.9
2017-Aug-13 20:00N 37°49' W 122°28'3 5.9
2017-Aug-13 19:30N 37°49' W 122°25'0 0.0
2017-Aug-13 06:41N 37°49' W 122°25'0 0.1
2017-Aug-13 06:30N 37°49' W 122°25'4 8.7
2017-Aug-13 06:00N 37°52' W 122°27'2 4.4
2017-Aug-13 05:30N 37°50' W 122°26'2 4.4
2017-Aug-13 05:00N 37°49' W 122°25'4 8.7
2017-Aug-13 04:30N 37°52' W 122°27'1 2.7
2017-Aug-13 03:58N 37°51' W 122°29'2 5.4
2017-Aug-13 03:31N 37°50' W 122°26'2 3.1
2017-Aug-13 02:58N 37°49' W 122°25'4 8.6
2017-Aug-13 02:30N 37°52' W 122°27'0 0.7
2017-Aug-13 01:58N 37°52' W 122°27'4 8.1
2017-Aug-13 01:26N 37°49' W 122°25'0 0.0
2017-Aug-13 00:58N 37°49' W 122°25'0 0.0
2017-Aug-13 00:29N 37°49' W 122°25'1 2.9
2017-Aug-12 23:59N 37°50' W 122°26'3 5.8
2017-Aug-12 23:29N 37°52' W 122°27'4 7.6
2017-Aug-12 23:00N 37°49' W 122°25'1 1.2
2017-Aug-12 22:28N 37°49' W 122°25'0 0.0
2017-Aug-12 21:58N 37°49' W 122°25'0 0.0
2017-Aug-12 04:28N 37°49' W 122°25'2 4.4
2017-Aug-12 04:00N 37°48' W 122°22'4 7.7
2017-Aug-12 03:27N 37°48' W 122°17'1 2.3
2017-Aug-12 03:00N 37°47' W 122°18'3 5.4
2017-Aug-12 02:30N 37°49' W 122°21'2 4.9
2017-Aug-12 02:00N 37°48' W 122°18'1 2.1
2017-Aug-12 01:25N 37°48' W 122°17'0 0.4
2017-Aug-12 00:53N 37°48' W 122°17'3 7.1
2017-Aug-12 00:30N 37°48' W 122°20'3 6.3
2017-Aug-11 23:57N 37°49' W 122°25'  
Track history (hours):
 
Tides and Currents Weather Stations Pressure Air Temp Water Temp Dewpoint Dewpoint Depression Visibility Wind Speed Wind Dir Waves Ship Positions

Oski

Owner: BLUE & GOLD FLEET, SAN FRANCISCO, CA. More information available from US FCC via Universal Licensing System and Coast Guard Vessel Documentation Center.

Last reported at 2017-Aug-21 21:15 UTC. Time now 2017-Aug-21 21:46 UTC.
Position N 37°49' W 122°25'.

Length 24 m; draft 2 m.

Type: Passenger vessel. MMSI: 366985320.

Date/timePositionNaut miles runAvg speedWind from/ knotsBaromVisibWave heightAir tempDewpointWater temp
2017-Aug-21 21:15N 37°49' W 122°25'0 0.0
2017-Aug-21 02:11N 37°49' W 122°25'0 0.2
2017-Aug-21 02:00N 37°49' W 122°25'2 4.9
2017-Aug-21 01:30N 37°49' W 122°28'2 4.9
2017-Aug-21 01:00N 37°49' W 122°25'1 1.4
2017-Aug-21 00:30N 37°49' W 122°25'2 3.6
2017-Aug-21 00:00N 37°49' W 122°27'2 3.9
2017-Aug-20 23:30N 37°49' W 122°25'0 0.0
2017-Aug-20 23:00N 37°49' W 122°25'2 4.5
2017-Aug-20 22:30N 37°50' W 122°27'2 4.6
2017-Aug-20 22:00N 37°49' W 122°25'0 0.0
2017-Aug-20 21:30N 37°49' W 122°25'0 0.0
2017-Aug-20 21:00N 37°49' W 122°25'2 4.6
2017-Aug-20 20:30N 37°50' W 122°27'2 4.6
2017-Aug-20 20:00N 37°49' W 122°25'0 0.8
2017-Aug-20 19:30N 37°49' W 122°24'1 2.6
2017-Aug-20 19:00N 37°50' W 122°25'1 2.7
2017-Aug-20 18:30N 37°49' W 122°26'1 2.9
2017-Aug-20 18:00N 37°49' W 122°25'0 0.0
2017-Aug-20 04:05N 37°49' W 122°25'0 0.0
2017-Aug-20 04:00N 37°49' W 122°25'1 2.9
2017-Aug-20 03:30N 37°48' W 122°23'4 8.6
2017-Aug-20 03:00N 37°49' W 122°28'3 5.7
2017-Aug-20 02:30N 37°49' W 122°25'0 0.0
2017-Aug-20 02:00N 37°49' W 122°25'3 6.2
2017-Aug-20 01:30N 37°49' W 122°28'3 6.0
2017-Aug-20 01:00N 37°49' W 122°25'1 1.2
2017-Aug-20 00:30N 37°49' W 122°25'2 3.5
2017-Aug-19 23:59N 37°49' W 122°27'2 3.6
2017-Aug-19 23:30N 37°49' W 122°25'0 0.0
2017-Aug-19 23:01N 37°49' W 122°25'2 3.5
2017-Aug-19 22:30N 37°50' W 122°26'1 2.7
2017-Aug-19 22:01N 37°49' W 122°25'0 0.8
2017-Aug-19 21:30N 37°49' W 122°25'0 0.0
2017-Aug-19 21:00N 37°49' W 122°25'2 4.0
2017-Aug-19 20:31N 37°49' W 122°27'2 4.0
2017-Aug-19 20:01N 37°49' W 122°25'1 1.4
2017-Aug-19 19:31N 37°48' W 122°24'2 3.9
2017-Aug-19 19:00N 37°50' W 122°25'2 3.4
2017-Aug-19 18:31N 37°49' W 122°27'2 3.8
2017-Aug-19 18:01N 37°49' W 122°25'0 0.0
2017-Aug-19 02:28N 37°49' W 122°25'3 6.4
2017-Aug-19 02:00N 37°49' W 122°28'3 5.8
2017-Aug-19 01:30N 37°49' W 122°25'0 0.0
2017-Aug-19 01:00N 37°49' W 122°25'0 0.0
2017-Aug-19 00:30N 37°49' W 122°25'0 0.4
2017-Aug-19 00:00N 37°49' W 122°25'1 2.3
2017-Aug-18 23:30N 37°50' W 122°25'2 3.1
2017-Aug-18 23:01N 37°49' W 122°27'2 3.9
2017-Aug-18 22:30N 37°49' W 122°25'2 4.8
2017-Aug-18 22:00N 37°49' W 122°28'2 4.8
2017-Aug-18 21:31N 37°49' W 122°25'0 0.0
2017-Aug-18 21:00N 37°49' W 122°25'0 0.0
2017-Aug-18 20:30N 37°49' W 122°25'2 4.4
2017-Aug-18 20:01N 37°49' W 122°27'2 4.4
2017-Aug-18 19:31N 37°49' W 122°25'0 0.0
2017-Aug-18 19:00N 37°49' W 122°25'0 0.0
2017-Aug-18 18:28N 37°49' W 122°25'1 0.1
2017-Aug-18 02:24N 37°48' W 122°24'1 2.1
2017-Aug-18 02:00N 37°49' W 122°25'3 5.3
2017-Aug-18 01:31N 37°49' W 122°28'3 5.3
2017-Aug-18 01:01N 37°49' W 122°25'1 1.2
2017-Aug-18 00:30N 37°49' W 122°24'2 3.7
2017-Aug-18 00:00N 37°49' W 122°27'2 3.3
2017-Aug-17 23:30N 37°49' W 122°25'0 0.0
2017-Aug-17 23:00N 37°49' W 122°25'2 4.5
2017-Aug-17 22:30N 37°49' W 122°27'2 4.5
2017-Aug-17 22:00N 37°49' W 122°25'0 0.0
2017-Aug-17 21:30N 37°49' W 122°25'0 0.0
2017-Aug-17 21:00N 37°49' W 122°25'2 4.3
2017-Aug-17 20:31N 37°49' W 122°27'2 4.3
2017-Aug-17 20:01N 37°49' W 122°25'1 1.6
2017-Aug-17 19:31N 37°49' W 122°24'2 3.7
2017-Aug-17 19:01N 37°50' W 122°25'2 3.3
2017-Aug-17 18:30N 37°49' W 122°27'2 3.5
2017-Aug-17 17:59N 37°49' W 122°25'0 0.0
2017-Aug-17 02:54N 37°49' W 122°25'2 5.2
2017-Aug-17 02:30N 37°50' W 122°27'2 3.8
2017-Aug-17 01:58N 37°49' W 122°25'0 0.0
2017-Aug-17 01:30N 37°49' W 122°25'3 5.1
2017-Aug-17 01:01N 37°50' W 122°28'3 4.9
2017-Aug-17 00:30N 37°49' W 122°25'1 2.2
2017-Aug-17 00:00N 37°50' W 122°25'1 2.6
2017-Aug-16 23:30N 37°49' W 122°26'1 2.5
2017-Aug-16 22:59N 37°49' W 122°25'0 0.0
2017-Aug-16 22:28N 37°49' W 122°25'1 2.0
2017-Aug-16 22:00N 37°48' W 122°24'2 3.5
2017-Aug-16 21:30N 37°49' W 122°25'1 2.9
2017-Aug-16 21:00N 37°49' W 122°27'2 3.0
2017-Aug-16 20:26N 37°49' W 122°25'0 0.0
2017-Aug-16 19:58N 37°49' W 122°25'3 5.6
2017-Aug-16 19:31N 37°49' W 122°28'3 4.6
2017-Aug-16 18:58N 37°49' W 122°25'1 2.5
2017-Aug-16 18:30N 37°50' W 122°25'1 0.1
2017-Aug-16 02:30N 37°49' W 122°25'3 5.1
2017-Aug-16 02:01N 37°49' W 122°28'3 5.1
2017-Aug-16 01:30N 37°49' W 122°25'0 0.0
2017-Aug-16 01:01N 37°49' W 122°25'0 0.0
2017-Aug-16 00:30N 37°49' W 122°25'1 1.3
2017-Aug-16 00:01N 37°49' W 122°24'2 3.1
2017-Aug-15 23:31N 37°50' W 122°25'1 1.9
2017-Aug-15 23:01N 37°49' W 122°26'1 3.0
2017-Aug-15 22:31N 37°49' W 122°25'3 5.7
2017-Aug-15 22:00N 37°50' W 122°28'3 5.7
2017-Aug-15 21:30N 37°49' W 122°25'0 0.0
2017-Aug-15 21:00N 37°49' W 122°25'0 0.0
2017-Aug-15 20:30N 37°49' W 122°25'3 5.3
2017-Aug-15 20:00N 37°49' W 122°28'3 5.3
2017-Aug-15 19:30N 37°49' W 122°25'0 0.0
2017-Aug-15 02:32N 37°49' W 122°25'0 0.0
2017-Aug-15 02:29N 37°49' W 122°25'2 4.7
2017-Aug-15 02:00N 37°50' W 122°27'2 4.4
2017-Aug-15 01:31N 37°49' W 122°25'0 0.0
2017-Aug-15 01:01N 37°49' W 122°25'0 0.0
2017-Aug-15 00:31N 37°49' W 122°25'1 1.2
2017-Aug-15 00:01N 37°49' W 122°24'2 3.0
2017-Aug-14 23:30N 37°50' W 122°25'1 1.9
2017-Aug-14 23:01N 37°49' W 122°26'2 3.1
2017-Aug-14 22:31N 37°49' W 122°25'3 6.0
2017-Aug-14 22:00N 37°49' W 122°28'3 6.0
2017-Aug-14 21:30N 37°49' W 122°25'0 0.0
2017-Aug-14 21:00N 37°49' W 122°25'0 0.0
2017-Aug-14 20:30N 37°49' W 122°25'2 4.9
2017-Aug-14 20:00N 37°49' W 122°28'2 4.9
2017-Aug-14 19:30N 37°49' W 122°25'0 0.0
2017-Aug-14 02:31N 37°49' W 122°25'0 0.0
2017-Aug-14 02:28N 37°49' W 122°25'2 5.0
2017-Aug-14 02:00N 37°50' W 122°27'2 4.7
2017-Aug-14 01:30N 37°49' W 122°25'0 0.0
2017-Aug-14 01:00N 37°49' W 122°25'0 0.0
2017-Aug-14 00:30N 37°49' W 122°25'0 0.8
2017-Aug-14 00:00N 37°49' W 122°24'1 2.3
2017-Aug-13 23:30N 37°50' W 122°25'1 2.9
2017-Aug-13 23:00N 37°49' W 122°27'2 3.6
2017-Aug-13 22:30N 37°49' W 122°25'3 5.3
2017-Aug-13 22:00N 37°49' W 122°28'3 5.3
2017-Aug-13 21:30N 37°49' W 122°25'0 0.0
2017-Aug-13 21:00N 37°49' W 122°25'0 0.0
2017-Aug-13 20:30N 37°49' W 122°25'3 5.9
2017-Aug-13 20:00N 37°49' W 122°28'3 5.9
2017-Aug-13 19:30N 37°49' W 122°25'0 0.0
2017-Aug-13 06:41N 37°49' W 122°25'0 0.1
2017-Aug-13 06:30N 37°49' W 122°25'4 8.7
2017-Aug-13 06:00N 37°52' W 122°27'2 4.4
2017-Aug-13 05:30N 37°50' W 122°26'2 4.4
2017-Aug-13 05:00N 37°49' W 122°25'4 8.7
2017-Aug-13 04:30N 37°52' W 122°27'1 2.7
2017-Aug-13 03:58N 37°51' W 122°29'2 5.4
2017-Aug-13 03:31N 37°50' W 122°26'2 3.1
2017-Aug-13 02:58N 37°49' W 122°25'4 8.6
2017-Aug-13 02:30N 37°52' W 122°27'0 0.7
2017-Aug-13 01:58N 37°52' W 122°27'4 8.1
2017-Aug-13 01:26N 37°49' W 122°25'0 0.0
2017-Aug-13 00:58N 37°49' W 122°25'0 0.0
2017-Aug-13 00:29N 37°49' W 122°25'1 2.9
2017-Aug-12 23:59N 37°50' W 122°26'3 5.8
2017-Aug-12 23:29N 37°52' W 122°27'4 7.6
2017-Aug-12 23:00N 37°49' W 122°25'1 1.2
2017-Aug-12 22:28N 37°49' W 122°25'0 0.0
2017-Aug-12 21:58N 37°49' W 122°25'0 0.0
2017-Aug-12 04:28N 37°49' W 122°25'2 4.4
2017-Aug-12 04:00N 37°48' W 122°22'4 7.7
2017-Aug-12 03:27N 37°48' W 122°17'1 2.3
2017-Aug-12 03:00N 37°47' W 122°18'3 5.4
2017-Aug-12 02:30N 37°49' W 122°21'2 4.9
2017-Aug-12 02:00N 37°48' W 122°18'1 2.1
2017-Aug-12 01:25N 37°48' W 122°17'0 0.4
2017-Aug-12 00:53N 37°48' W 122°17'3 7.1
2017-Aug-12 00:30N 37°48' W 122°20'3 6.3
2017-Aug-11 23:57N 37°49' W 122°25'  

Dump ship's entire track history